Hurleyville, New York
Current Conditions -  °F | °C
As of 5:55 PM on Thursday 20 Nov 2014 (Local Time) from KMSV Reporting Station
Clear Clear  
Wind Chill: 20°   Ceiling: Unl
Heat Index: 28°   Visibility: 10mi
Dew Point:   Wind: 8mph
Humidity: 43%   Direction: 260°W
Pressure: 29.85"   Gusts: NA
Location:  41.74°N, 74.67°W
Report Text: KMSV 202255Z AUTO 26007KT 10SM CLR M02/M13 A2985 RMK AO1
Loading
Personal Weather Stations






























Interactive Weather Map New forecast layout! Learn more

10-Day Weather Forecast

Advertisements
Track Severe Weather on mobile